sensor_id;sensor_type;location;lat;lon;timestamp;temperature;humidity
68354;DHT22;55274;43.060;25.618;2022-07-29T00:02:22;21.50;91.60
68354;DHT22;55274;43.060;25.618;2022-07-29T00:05:07;21.50;91.10
68354;DHT22;55274;43.060;25.618;2022-07-29T00:07:33;21.50;90.60
68354;DHT22;55274;43.060;25.618;2022-07-29T00:09:59;21.40;90.90
68354;DHT22;55274;43.060;25.618;2022-07-29T00:12:25;21.30;91.90
68354;DHT22;55274;43.060;25.618;2022-07-29T00:14:51;21.30;92.10
68354;DHT22;55274;43.060;25.618;2022-07-29T00:17:22;21.30;91.50
68354;DHT22;55274;43.060;25.618;2022-07-29T00:19:47;21.30;90.70
68354;DHT22;55274;43.060;25.618;2022-07-29T00:22:13;21.20;91.20
68354;DHT22;55274;43.060;25.618;2022-07-29T00:24:39;21.20;91.20
68354;DHT22;55274;43.060;25.618;2022-07-29T00:27:05;21.20;91.30
68354;DHT22;55274;43.060;25.618;2022-07-29T00:29:39;21.20;91.40
68354;DHT22;55274;43.060;25.618;2022-07-29T00:32:05;21.20;91.40
68354;DHT22;55274;43.060;25.618;2022-07-29T00:34:50;21.20;91.40
68354;DHT22;55274;43.060;25.618;2022-07-29T00:37:53;21.20;91.00
68354;DHT22;55274;43.060;25.618;2022-07-29T00:40:24;21.10;90.10
68354;DHT22;55274;43.060;25.618;2022-07-29T00:42:51;21.10;90.00
68354;DHT22;55274;43.060;25.618;2022-07-29T00:45:36;21.10;89.80
68354;DHT22;55274;43.060;25.618;2022-07-29T00:48:21;21.10;90.10
68354;DHT22;55274;43.060;25.618;2022-07-29T00:51:05;21.10;90.40
68354;DHT22;55274;43.060;25.618;2022-07-29T00:53:34;21.10;90.70
68354;DHT22;55274;43.060;25.618;2022-07-29T00:56:04;21.10;90.80
68354;DHT22;55274;43.060;25.618;2022-07-29T00:58:29;21.00;91.30
68354;DHT22;55274;43.060;25.618;2022-07-29T01:00:57;20.90;91.00
68354;DHT22;55274;43.060;25.618;2022-07-29T01:03:23;20.90;91.40
68354;DHT22;55274;43.060;25.618;2022-07-29T01:05:49;20.90;91.60
68354;DHT22;55274;43.060;25.618;2022-07-29T01:08:15;20.90;90.90
68354;DHT22;55274;43.060;25.618;2022-07-29T01:10:42;20.90;90.90
68354;DHT22;55274;43.060;25.618;2022-07-29T01:13:11;20.90;90.60
68354;DHT22;55274;43.060;25.618;2022-07-29T01:15:45;20.80;90.90
68354;DHT22;55274;43.060;25.618;2022-07-29T01:18:32;20.80;91.60
68354;DHT22;55274;43.060;25.618;2022-07-29T01:27:02;20.60;92.00
68354;DHT22;55274;43.060;25.618;2022-07-29T01:29:41;20.60;91.80
68354;DHT22;55274;43.060;25.618;2022-07-29T01:32:12;20.60;91.60
68354;DHT22;55274;43.060;25.618;2022-07-29T01:39:57;20.70;90.80
68354;DHT22;55274;43.060;25.618;2022-07-29T01:42:43;20.70;91.10
68354;DHT22;55274;43.060;25.618;2022-07-29T01:45:16;20.60;91.30
68354;DHT22;55274;43.060;25.618;2022-07-29T01:50:16;20.70;91.60
68354;DHT22;55274;43.060;25.618;2022-07-29T01:52:52;20.70;91.80
68354;DHT22;55274;43.060;25.618;2022-07-29T01:55:22;20.60;91.90
68354;DHT22;55274;43.060;25.618;2022-07-29T01:57:50;20.50;92.70
68354;DHT22;55274;43.060;25.618;2022-07-29T02:00:16;20.40;93.00
68354;DHT22;55274;43.060;25.618;2022-07-29T02:02:44;20.40;92.80
68354;DHT22;55274;43.060;25.618;2022-07-29T02:05:13;20.40;92.80
68354;DHT22;55274;43.060;25.618;2022-07-29T02:07:42;20.40;92.10
68354;DHT22;55274;43.060;25.618;2022-07-29T02:10:10;20.50;92.00
68354;DHT22;55274;43.060;25.618;2022-07-29T02:12:38;20.50;92.00
68354;DHT22;55274;43.060;25.618;2022-07-29T02:15:06;20.60;91.50
68354;DHT22;55274;43.060;25.618;2022-07-29T02:17:48;20.50;90.30
68354;DHT22;55274;43.060;25.618;2022-07-29T02:20:16;20.40;90.20
68354;DHT22;55274;43.060;25.618;2022-07-29T02:22:44;20.30;90.60
68354;DHT22;55274;43.060;25.618;2022-07-29T02:25:11;20.40;90.70
68354;DHT22;55274;43.060;25.618;2022-07-29T02:27:38;20.40;90.60
68354;DHT22;55274;43.060;25.618;2022-07-29T02:30:06;20.30;90.30
68354;DHT22;55274;43.060;25.618;2022-07-29T02:32:35;20.20;90.50
68354;DHT22;55274;43.060;25.618;2022-07-29T02:35:03;20.10;91.80
68354;DHT22;55274;43.060;25.618;2022-07-29T02:37:29;20.20;92.10
68354;DHT22;55274;43.060;25.618;2022-07-29T02:39:57;20.10;92.00
68354;DHT22;55274;43.060;25.618;2022-07-29T02:42:24;20.10;91.60
68354;DHT22;55274;43.060;25.618;2022-07-29T02:44:52;20.20;91.00
68354;DHT22;55274;43.060;25.618;2022-07-29T02:47:34;20.20;91.90
68354;DHT22;55274;43.060;25.618;2022-07-29T02:50:12;20.20;91.60
68354;DHT22;55274;43.060;25.618;2022-07-29T02:56:16;20.10;91.00
68354;DHT22;55274;43.060;25.618;2022-07-29T02:58:14;20.10;91.40
68354;DHT22;55274;43.060;25.618;2022-07-29T03:00:41;20.00;91.80
68354;DHT22;55274;43.060;25.618;2022-07-29T03:03:12;20.10;91.50
68354;DHT22;55274;43.060;25.618;2022-07-29T03:05:39;20.00;91.90
68354;DHT22;55274;43.060;25.618;2022-07-29T03:08:07;20.10;92.20
68354;DHT22;55274;43.060;25.618;2022-07-29T03:10:35;20.10;92.10
68354;DHT22;55274;43.060;25.618;2022-07-29T03:13:03;20.00;92.00
68354;DHT22;55274;43.060;25.618;2022-07-29T03:15:30;20.10;91.90
68354;DHT22;55274;43.060;25.618;2022-07-29T03:17:56;20.10;91.80
68354;DHT22;55274;43.060;25.618;2022-07-29T03:20:24;20.20;91.60
68354;DHT22;55274;43.060;25.618;2022-07-29T03:22:50;20.20;91.80
68354;DHT22;55274;43.060;25.618;2022-07-29T03:25:18;20.20;91.90
68354;DHT22;55274;43.060;25.618;2022-07-29T03:27:44;20.10;91.10
68354;DHT22;55274;43.060;25.618;2022-07-29T03:30:12;20.10;90.70
68354;DHT22;55274;43.060;25.618;2022-07-29T03:32:39;20.00;90.50
68354;DHT22;55274;43.060;25.618;2022-07-29T03:35:06;20.00;91.10
68354;DHT22;55274;43.060;25.618;2022-07-29T03:37:32;20.00;91.20
68354;DHT22;55274;43.060;25.618;2022-07-29T03:40:00;20.00;91.80
68354;DHT22;55274;43.060;25.618;2022-07-29T03:42:31;20.10;91.80
68354;DHT22;55274;43.060;25.618;2022-07-29T03:45:00;20.10;92.30
68354;DHT22;55274;43.060;25.618;2022-07-29T03:47:29;20.20;92.00
68354;DHT22;55274;43.060;25.618;2022-07-29T03:50:00;20.20;92.00
68354;DHT22;55274;43.060;25.618;2022-07-29T03:52:27;20.20;91.90
68354;DHT22;55274;43.060;25.618;2022-07-29T03:54:53;20.20;91.60
68354;DHT22;55274;43.060;25.618;2022-07-29T03:57:22;20.30;91.40
68354;DHT22;55274;43.060;25.618;2022-07-29T03:59:49;20.30;91.20
68354;DHT22;55274;43.060;25.618;2022-07-29T04:02:16;20.40;91.10
68354;DHT22;55274;43.060;25.618;2022-07-29T04:04:42;20.40;91.50
68354;DHT22;55274;43.060;25.618;2022-07-29T04:07:14;20.50;91.40
68354;DHT22;55274;43.060;25.618;2022-07-29T04:09:41;20.50;91.00
68354;DHT22;55274;43.060;25.618;2022-07-29T04:12:07;20.50;91.20
68354;DHT22;55274;43.060;25.618;2022-07-29T04:14:34;20.50;91.40
68354;DHT22;55274;43.060;25.618;2022-07-29T04:17:01;20.50;91.30
68354;DHT22;55274;43.060;25.618;2022-07-29T04:19:27;20.50;91.40
68354;DHT22;55274;43.060;25.618;2022-07-29T04:21:53;20.60;91.20
68354;DHT22;55274;43.060;25.618;2022-07-29T04:24:19;20.60;91.40
68354;DHT22;55274;43.060;25.618;2022-07-29T04:26:46;20.80;91.60
68354;DHT22;55274;43.060;25.618;2022-07-29T04:29:12;21.40;89.90
68354;DHT22;55274;43.060;25.618;2022-07-29T04:31:40;21.90;87.50
68354;DHT22;55274;43.060;25.618;2022-07-29T04:34:06;22.30;86.10
68354;DHT22;55274;43.060;25.618;2022-07-29T04:36:32;22.70;84.40
68354;DHT22;55274;43.060;25.618;2022-07-29T04:38:58;23.00;83.10
68354;DHT22;55274;43.060;25.618;2022-07-29T04:41:24;23.40;81.20
68354;DHT22;55274;43.060;25.618;2022-07-29T04:43:49;23.90;78.40
68354;DHT22;55274;43.060;25.618;2022-07-29T04:46:15;24.30;76.20
68354;DHT22;55274;43.060;25.618;2022-07-29T04:48:41;24.90;75.90
68354;DHT22;55274;43.060;25.618;2022-07-29T04:51:07;25.50;72.30
68354;DHT22;55274;43.060;25.618;2022-07-29T04:53:33;25.90;70.50
68354;DHT22;55274;43.060;25.618;2022-07-29T04:55:58;26.40;67.90
68354;DHT22;55274;43.060;25.618;2022-07-29T04:58:24;26.60;66.80
68354;DHT22;55274;43.060;25.618;2022-07-29T05:00:51;26.90;67.10
68354;DHT22;55274;43.060;25.618;2022-07-29T05:03:17;27.50;64.30
68354;DHT22;55274;43.060;25.618;2022-07-29T05:05:42;27.80;64.20
68354;DHT22;55274;43.060;25.618;2022-07-29T05:08:09;28.00;62.20
68354;DHT22;55274;43.060;25.618;2022-07-29T05:10:35;28.10;60.80
68354;DHT22;55274;43.060;25.618;2022-07-29T05:13:06;28.50;60.50
68354;DHT22;55274;43.060;25.618;2022-07-29T05:15:34;28.60;59.30
68354;DHT22;55274;43.060;25.618;2022-07-29T05:18:00;29.10;59.40
68354;DHT22;55274;43.060;25.618;2022-07-29T05:20:27;29.10;57.50
68354;DHT22;55274;43.060;25.618;2022-07-29T05:22:59;29.20;57.30
68354;DHT22;55274;43.060;25.618;2022-07-29T05:25:26;29.60;55.00
68354;DHT22;55274;43.060;25.618;2022-07-29T05:27:52;30.00;55.50
68354;DHT22;55274;43.060;25.618;2022-07-29T05:30:18;30.20;53.80
68354;DHT22;55274;43.060;25.618;2022-07-29T05:32:44;30.20;53.70
68354;DHT22;55274;43.060;25.618;2022-07-29T05:35:12;30.20;53.00
68354;DHT22;55274;43.060;25.618;2022-07-29T05:37:38;30.20;53.20
68354;DHT22;55274;43.060;25.618;2022-07-29T05:40:04;30.30;53.40
68354;DHT22;55274;43.060;25.618;2022-07-29T05:42:30;30.30;53.00
68354;DHT22;55274;43.060;25.618;2022-07-29T05:44:56;30.60;51.80
68354;DHT22;55274;43.060;25.618;2022-07-29T05:47:23;30.90;51.80
68354;DHT22;55274;43.060;25.618;2022-07-29T05:49:49;31.00;51.50
68354;DHT22;55274;43.060;25.618;2022-07-29T05:52:16;31.00;52.50
68354;DHT22;55274;43.060;25.618;2022-07-29T05:54:42;31.40;51.00
68354;DHT22;55274;43.060;25.618;2022-07-29T05:57:08;31.50;51.00
68354;DHT22;55274;43.060;25.618;2022-07-29T05:59:37;31.60;49.80
68354;DHT22;55274;43.060;25.618;2022-07-29T06:02:03;31.40;50.50
68354;DHT22;55274;43.060;25.618;2022-07-29T06:04:31;31.10;50.10
68354;DHT22;55274;43.060;25.618;2022-07-29T06:06:57;31.40;49.90
68354;DHT22;55274;43.060;25.618;2022-07-29T06:09:23;31.40;49.10
68354;DHT22;55274;43.060;25.618;2022-07-29T06:11:48;31.20;50.20
68354;DHT22;55274;43.060;25.618;2022-07-29T06:14:14;31.10;49.60
68354;DHT22;55274;43.060;25.618;2022-07-29T06:16:40;31.30;49.20
68354;DHT22;55274;43.060;25.618;2022-07-29T06:19:06;31.40;48.50
68354;DHT22;55274;43.060;25.618;2022-07-29T06:21:32;31.30;49.40
68354;DHT22;55274;43.060;25.618;2022-07-29T06:23:59;31.20;49.80
68354;DHT22;55274;43.060;25.618;2022-07-29T06:26:25;31.20;49.40
68354;DHT22;55274;43.060;25.618;2022-07-29T06:28:50;31.30;49.50
68354;DHT22;55274;43.060;25.618;2022-07-29T06:31:16;31.30;48.80
68354;DHT22;55274;43.060;25.618;2022-07-29T06:33:42;31.40;48.30
68354;DHT22;55274;43.060;25.618;2022-07-29T06:36:08;31.40;47.70
68354;DHT22;55274;43.060;25.618;2022-07-29T06:38:34;31.30;48.30
68354;DHT22;55274;43.060;25.618;2022-07-29T06:41:00;31.30;48.80
68354;DHT22;55274;43.060;25.618;2022-07-29T06:43:32;31.40;48.50
68354;DHT22;55274;43.060;25.618;2022-07-29T06:46:00;31.40;47.70
68354;DHT22;55274;43.060;25.618;2022-07-29T06:48:27;31.60;46.70
68354;DHT22;55274;43.060;25.618;2022-07-29T06:50:53;31.50;46.70
68354;DHT22;55274;43.060;25.618;2022-07-29T06:53:19;31.60;46.00
68354;DHT22;55274;43.060;25.618;2022-07-29T06:55:45;31.80;45.70
68354;DHT22;55274;43.060;25.618;2022-07-29T06:58:11;32.00;45.70
68354;DHT22;55274;43.060;25.618;2022-07-29T07:00:37;32.20;45.20
68354;DHT22;55274;43.060;25.618;2022-07-29T07:03:03;32.40;45.00
68354;DHT22;55274;43.060;25.618;2022-07-29T07:05:29;32.60;44.40
68354;DHT22;55274;43.060;25.618;2022-07-29T07:07:55;32.70;43.90
68354;DHT22;55274;43.060;25.618;2022-07-29T07:10:20;32.70;43.50
68354;DHT22;55274;43.060;25.618;2022-07-29T07:12:46;32.90;43.50
68354;DHT22;55274;43.060;25.618;2022-07-29T07:15:12;33.10;41.80
68354;DHT22;55274;43.060;25.618;2022-07-29T07:17:38;33.30;41.70
68354;DHT22;55274;43.060;25.618;2022-07-29T07:20:05;33.50;40.50
68354;DHT22;55274;43.060;25.618;2022-07-29T07:22:31;33.80;40.50
68354;DHT22;55274;43.060;25.618;2022-07-29T07:24:57;33.90;41.00
68354;DHT22;55274;43.060;25.618;2022-07-29T07:27:23;34.30;39.70
68354;DHT22;55274;43.060;25.618;2022-07-29T07:29:49;34.20;38.70
68354;DHT22;55274;43.060;25.618;2022-07-29T07:32:14;34.40;39.10
68354;DHT22;55274;43.060;25.618;2022-07-29T07:34:42;34.40;38.20
68354;DHT22;55274;43.060;25.618;2022-07-29T07:37:08;34.40;37.90
68354;DHT22;55274;43.060;25.618;2022-07-29T07:39:35;34.40;36.80
68354;DHT22;55274;43.060;25.618;2022-07-29T07:42:01;34.60;36.50
68354;DHT22;55274;43.060;25.618;2022-07-29T07:44:27;34.90;36.00
68354;DHT22;55274;43.060;25.618;2022-07-29T07:46:52;35.20;35.60
68354;DHT22;55274;43.060;25.618;2022-07-29T07:49:18;35.10;32.10
68354;DHT22;55274;43.060;25.618;2022-07-29T07:51:44;35.40;30.90
68354;DHT22;55274;43.060;25.618;2022-07-29T07:54:10;35.60;31.40
68354;DHT22;55274;43.060;25.618;2022-07-29T07:56:36;35.70;30.40
68354;DHT22;55274;43.060;25.618;2022-07-29T07:59:02;35.70;29.40
68354;DHT22;55274;43.060;25.618;2022-07-29T08:01:28;35.90;31.50
68354;DHT22;55274;43.060;25.618;2022-07-29T08:03:53;35.90;28.90
68354;DHT22;55274;43.060;25.618;2022-07-29T08:06:19;36.00;29.40
68354;DHT22;55274;43.060;25.618;2022-07-29T08:08:45;36.20;29.60
68354;DHT22;55274;43.060;25.618;2022-07-29T08:11:11;36.20;29.70
68354;DHT22;55274;43.060;25.618;2022-07-29T08:13:37;36.30;30.00
68354;DHT22;55274;43.060;25.618;2022-07-29T08:16:04;36.20;28.50
68354;DHT22;55274;43.060;25.618;2022-07-29T08:18:41;36.00;28.40
68354;DHT22;55274;43.060;25.618;2022-07-29T08:21:07;35.90;27.60
68354;DHT22;55274;43.060;25.618;2022-07-29T08:23:33;36.20;29.30
68354;DHT22;55274;43.060;25.618;2022-07-29T08:26:09;36.20;29.10
68354;DHT22;55274;43.060;25.618;2022-07-29T08:28:39;36.20;28.60
68354;DHT22;55274;43.060;25.618;2022-07-29T08:31:06;35.90;29.00
68354;DHT22;55274;43.060;25.618;2022-07-29T08:33:33;36.20;28.70
68354;DHT22;55274;43.060;25.618;2022-07-29T08:35:59;36.30;28.60
68354;DHT22;55274;43.060;25.618;2022-07-29T08:38:25;36.50;27.30
68354;DHT22;55274;43.060;25.618;2022-07-29T08:40:52;36.40;27.90
68354;DHT22;55274;43.060;25.618;2022-07-29T08:43:18;36.40;26.70
68354;DHT22;55274;43.060;25.618;2022-07-29T08:45:47;36.60;26.80
68354;DHT22;55274;43.060;25.618;2022-07-29T08:48:14;36.00;27.30
68354;DHT22;55274;43.060;25.618;2022-07-29T08:50:41;36.20;27.50
68354;DHT22;55274;43.060;25.618;2022-07-29T08:53:11;36.60;26.70
68354;DHT22;55274;43.060;25.618;2022-07-29T08:55:42;36.30;27.50
68354;DHT22;55274;43.060;25.618;2022-07-29T08:58:09;36.30;27.40
68354;DHT22;55274;43.060;25.618;2022-07-29T09:00:37;36.70;26.20
68354;DHT22;55274;43.060;25.618;2022-07-29T09:03:08;37.10;26.40
68354;DHT22;55274;43.060;25.618;2022-07-29T09:05:35;36.70;25.60
68354;DHT22;55274;43.060;25.618;2022-07-29T09:08:01;37.20;26.20
68354;DHT22;55274;43.060;25.618;2022-07-29T09:10:27;37.20;26.20
68354;DHT22;55274;43.060;25.618;2022-07-29T09:12:58;37.50;26.00
68354;DHT22;55274;43.060;25.618;2022-07-29T09:15:23;37.50;25.60
68354;DHT22;55274;43.060;25.618;2022-07-29T09:17:50;37.80;25.20
68354;DHT22;55274;43.060;25.618;2022-07-29T09:20:21;37.90;25.30
68354;DHT22;55274;43.060;25.618;2022-07-29T09:22:51;38.00;25.10
68354;DHT22;55274;43.060;25.618;2022-07-29T09:25:39;38.20;24.50
68354;DHT22;55274;43.060;25.618;2022-07-29T09:28:13;38.40;24.20
68354;DHT22;55274;43.060;25.618;2022-07-29T09:30:53;38.60;23.80
68354;DHT22;55274;43.060;25.618;2022-07-29T09:33:20;38.00;23.60
68354;DHT22;55274;43.060;25.618;2022-07-29T09:35:57;38.00;24.20
68354;DHT22;55274;43.060;25.618;2022-07-29T09:38:23;38.10;23.80
68354;DHT22;55274;43.060;25.618;2022-07-29T09:41:01;38.20;24.40
68354;DHT22;55274;43.060;25.618;2022-07-29T09:43:27;38.40;24.90
68354;DHT22;55274;43.060;25.618;2022-07-29T09:45:53;38.80;23.60
68354;DHT22;55274;43.060;25.618;2022-07-29T09:48:23;39.00;24.10
68354;DHT22;55274;43.060;25.618;2022-07-29T09:50:50;39.10;23.80
68354;DHT22;55274;43.060;25.618;2022-07-29T09:55:58;38.70;22.60
68354;DHT22;55274;43.060;25.618;2022-07-29T09:58:23;38.40;23.70
68354;DHT22;55274;43.060;25.618;2022-07-29T10:00:51;38.00;24.50
68354;DHT22;55274;43.060;25.618;2022-07-29T10:03:18;37.80;24.20
68354;DHT22;55274;43.060;25.618;2022-07-29T10:05:45;38.20;22.70
68354;DHT22;55274;43.060;25.618;2022-07-29T10:08:12;38.40;23.20
68354;DHT22;55274;43.060;25.618;2022-07-29T10:10:41;38.60;23.10
68354;DHT22;55274;43.060;25.618;2022-07-29T10:13:10;38.90;22.50
68354;DHT22;55274;43.060;25.618;2022-07-29T10:15:38;39.20;22.50
68354;DHT22;55274;43.060;25.618;2022-07-29T10:18:07;39.40;22.80
68354;DHT22;55274;43.060;25.618;2022-07-29T10:20:33;39.50;21.50
68354;DHT22;55274;43.060;25.618;2022-07-29T10:22:59;39.60;22.20
68354;DHT22;55274;43.060;25.618;2022-07-29T10:25:27;39.60;22.80
68354;DHT22;55274;43.060;25.618;2022-07-29T10:27:54;39.60;21.50
68354;DHT22;55274;43.060;25.618;2022-07-29T10:30:22;39.70;21.70
68354;DHT22;55274;43.060;25.618;2022-07-29T10:33:26;39.80;20.90
68354;DHT22;55274;43.060;25.618;2022-07-29T10:36:27;39.80;20.80
68354;DHT22;55274;43.060;25.618;2022-07-29T10:41:59;39.10;23.40
68354;DHT22;55274;43.060;25.618;2022-07-29T10:44:27;39.10;23.20
68354;DHT22;55274;43.060;25.618;2022-07-29T10:46:54;39.20;23.00
68354;DHT22;55274;43.060;25.618;2022-07-29T10:49:27;38.80;23.20
68354;DHT22;55274;43.060;25.618;2022-07-29T10:54:45;39.10;23.20
68354;DHT22;55274;43.060;25.618;2022-07-29T10:59:43;39.40;22.30
68354;DHT22;55274;43.060;25.618;2022-07-29T11:07:24;39.80;22.20
68354;DHT22;55274;43.060;25.618;2022-07-29T11:15:05;39.10;24.00
68354;DHT22;55274;43.060;25.618;2022-07-29T11:20:39;39.00;23.80
68354;DHT22;55274;43.060;25.618;2022-07-29T11:23:21;39.00;24.10
68354;DHT22;55274;43.060;25.618;2022-07-29T11:28:34;39.00;24.00
68354;DHT22;55274;43.060;25.618;2022-07-29T11:31:02;39.20;24.10
68354;DHT22;55274;43.060;25.618;2022-07-29T11:33:30;39.30;23.40
68354;DHT22;55274;43.060;25.618;2022-07-29T11:36:13;39.60;23.80
68354;DHT22;55274;43.060;25.618;2022-07-29T11:38:40;39.70;22.40
68354;DHT22;55274;43.060;25.618;2022-07-29T11:41:28;39.60;23.30
68354;DHT22;55274;43.060;25.618;2022-07-29T11:43:56;39.20;22.40
68354;DHT22;55274;43.060;25.618;2022-07-29T11:46:43;39.10;22.70
68354;DHT22;55274;43.060;25.618;2022-07-29T11:49:09;38.90;21.50
68354;DHT22;55274;43.060;25.618;2022-07-29T11:51:39;38.90;22.50
68354;DHT22;55274;43.060;25.618;2022-07-29T11:54:09;38.60;23.30
68354;DHT22;55274;43.060;25.618;2022-07-29T11:56:39;38.50;22.60
68354;DHT22;55274;43.060;25.618;2022-07-29T11:59:07;38.80;22.90
68354;DHT22;55274;43.060;25.618;2022-07-29T12:01:35;39.00;22.60
68354;DHT22;55274;43.060;25.618;2022-07-29T12:04:05;39.00;22.80
68354;DHT22;55274;43.060;25.618;2022-07-29T12:06:35;39.00;23.30
68354;DHT22;55274;43.060;25.618;2022-07-29T12:09:07;39.00;23.80
68354;DHT22;55274;43.060;25.618;2022-07-29T12:11:33;39.10;23.60
68354;DHT22;55274;43.060;25.618;2022-07-29T12:13:58;39.00;23.50
68354;DHT22;55274;43.060;25.618;2022-07-29T12:16:37;39.00;24.00
68354;DHT22;55274;43.060;25.618;2022-07-29T12:19:04;39.00;24.30
68354;DHT22;55274;43.060;25.618;2022-07-29T12:21:50;39.00;24.50
68354;DHT22;55274;43.060;25.618;2022-07-29T12:24:18;38.80;24.20
68354;DHT22;55274;43.060;25.618;2022-07-29T12:26:51;38.70;24.50
68354;DHT22;55274;43.060;25.618;2022-07-29T12:29:18;38.40;24.90
68354;DHT22;55274;43.060;25.618;2022-07-29T12:31:44;38.50;24.00
68354;DHT22;55274;43.060;25.618;2022-07-29T12:34:13;38.80;24.00
68354;DHT22;55274;43.060;25.618;2022-07-29T12:36:43;38.80;23.60
68354;DHT22;55274;43.060;25.618;2022-07-29T12:39:10;38.80;23.20
68354;DHT22;55274;43.060;25.618;2022-07-29T12:41:36;38.60;23.20
68354;DHT22;55274;43.060;25.618;2022-07-29T12:44:02;38.60;23.90
68354;DHT22;55274;43.060;25.618;2022-07-29T12:46:28;38.60;24.50
68354;DHT22;55274;43.060;25.618;2022-07-29T12:48:54;38.70;24.10
68354;DHT22;55274;43.060;25.618;2022-07-29T12:51:30;38.50;25.30
68354;DHT22;55274;43.060;25.618;2022-07-29T12:54:12;38.60;24.70
68354;DHT22;55274;43.060;25.618;2022-07-29T12:56:39;38.40;25.60
68354;DHT22;55274;43.060;25.618;2022-07-29T12:59:34;38.00;25.80
68354;DHT22;55274;43.060;25.618;2022-07-29T13:02:00;38.00;25.50
68354;DHT22;55274;43.060;25.618;2022-07-29T13:04:26;38.20;25.30
68354;DHT22;55274;43.060;25.618;2022-07-29T13:07:08;38.10;25.30
68354;DHT22;55274;43.060;25.618;2022-07-29T13:09:41;38.00;25.00
68354;DHT22;55274;43.060;25.618;2022-07-29T13:12:12;38.20;24.80
68354;DHT22;55274;43.060;25.618;2022-07-29T13:14:44;38.40;24.60
68354;DHT22;55274;43.060;25.618;2022-07-29T13:17:12;38.10;25.20
68354;DHT22;55274;43.060;25.618;2022-07-29T13:19:43;38.00;25.10
68354;DHT22;55274;43.060;25.618;2022-07-29T13:22:11;37.70;24.30
68354;DHT22;55274;43.060;25.618;2022-07-29T13:24:54;37.80;24.90
68354;DHT22;55274;43.060;25.618;2022-07-29T13:27:26;37.70;24.50
68354;DHT22;55274;43.060;25.618;2022-07-29T13:29:54;37.70;24.30
68354;DHT22;55274;43.060;25.618;2022-07-29T13:32:22;37.80;24.50
68354;DHT22;55274;43.060;25.618;2022-07-29T13:34:48;37.50;25.00
68354;DHT22;55274;43.060;25.618;2022-07-29T13:37:14;37.60;25.10
68354;DHT22;55274;43.060;25.618;2022-07-29T13:39:42;37.40;25.00
68354;DHT22;55274;43.060;25.618;2022-07-29T13:42:08;37.60;24.30
68354;DHT22;55274;43.060;25.618;2022-07-29T13:44:35;37.70;24.20
68354;DHT22;55274;43.060;25.618;2022-07-29T13:47:00;37.90;24.30
68354;DHT22;55274;43.060;25.618;2022-07-29T13:49:27;37.90;24.30
68354;DHT22;55274;43.060;25.618;2022-07-29T13:51:53;38.00;24.70
68354;DHT22;55274;43.060;25.618;2022-07-29T13:54:18;37.80;24.30
68354;DHT22;55274;43.060;25.618;2022-07-29T13:56:44;37.80;24.30
68354;DHT22;55274;43.060;25.618;2022-07-29T13:59:11;37.80;24.90
68354;DHT22;55274;43.060;25.618;2022-07-29T14:01:38;37.40;25.70
68354;DHT22;55274;43.060;25.618;2022-07-29T14:04:06;37.50;25.90
68354;DHT22;55274;43.060;25.618;2022-07-29T14:06:32;37.60;25.10
68354;DHT22;55274;43.060;25.618;2022-07-29T14:08:58;37.60;24.40
68354;DHT22;55274;43.060;25.618;2022-07-29T14:11:24;37.40;25.30
68354;DHT22;55274;43.060;25.618;2022-07-29T14:13:50;37.30;25.30
68354;DHT22;55274;43.060;25.618;2022-07-29T14:16:16;37.30;25.20
68354;DHT22;55274;43.060;25.618;2022-07-29T14:18:41;37.10;25.00
68354;DHT22;55274;43.060;25.618;2022-07-29T14:21:08;37.10;25.30
68354;DHT22;55274;43.060;25.618;2022-07-29T14:23:34;37.30;25.00
68354;DHT22;55274;43.060;25.618;2022-07-29T14:26:00;37.10;25.50
68354;DHT22;55274;43.060;25.618;2022-07-29T14:28:25;36.70;25.70
68354;DHT22;55274;43.060;25.618;2022-07-29T14:30:51;36.60;26.00
68354;DHT22;55274;43.060;25.618;2022-07-29T14:33:17;36.80;25.70
68354;DHT22;55274;43.060;25.618;2022-07-29T14:35:43;36.80;25.70
68354;DHT22;55274;43.060;25.618;2022-07-29T14:38:09;36.90;26.00
68354;DHT22;55274;43.060;25.618;2022-07-29T14:40:35;36.90;26.60
68354;DHT22;55274;43.060;25.618;2022-07-29T14:43:01;36.90;26.60
68354;DHT22;55274;43.060;25.618;2022-07-29T14:45:28;36.90;26.50
68354;DHT22;55274;43.060;25.618;2022-07-29T14:47:54;37.00;26.60
68354;DHT22;55274;43.060;25.618;2022-07-29T14:50:20;37.00;25.70
68354;DHT22;55274;43.060;25.618;2022-07-29T14:52:45;37.00;25.70
68354;DHT22;55274;43.060;25.618;2022-07-29T14:55:11;36.90;25.40
68354;DHT22;55274;43.060;25.618;2022-07-29T14:57:37;36.80;26.00
68354;DHT22;55274;43.060;25.618;2022-07-29T15:00:04;36.80;26.10
68354;DHT22;55274;43.060;25.618;2022-07-29T15:02:32;36.50;26.70
68354;DHT22;55274;43.060;25.618;2022-07-29T15:04:57;36.30;26.90
68354;DHT22;55274;43.060;25.618;2022-07-29T15:07:23;36.30;27.20
68354;DHT22;55274;43.060;25.618;2022-07-29T15:09:49;36.10;27.70
68354;DHT22;55274;43.060;25.618;2022-07-29T15:12:15;36.10;27.90
68354;DHT22;55274;43.060;25.618;2022-07-29T15:14:41;36.00;28.20
68354;DHT22;55274;43.060;25.618;2022-07-29T15:17:06;36.10;28.00
68354;DHT22;55274;43.060;25.618;2022-07-29T15:19:32;36.00;29.40
68354;DHT22;55274;43.060;25.618;2022-07-29T15:21:58;35.90;28.50
68354;DHT22;55274;43.060;25.618;2022-07-29T15:24:25;35.90;28.50
68354;DHT22;55274;43.060;25.618;2022-07-29T15:26:51;35.90;29.80
68354;DHT22;55274;43.060;25.618;2022-07-29T15:29:16;35.70;30.10
68354;DHT22;55274;43.060;25.618;2022-07-29T15:31:42;35.60;29.50
68354;DHT22;55274;43.060;25.618;2022-07-29T15:34:08;35.60;30.70
68354;DHT22;55274;43.060;25.618;2022-07-29T15:36:35;35.60;29.80
68354;DHT22;55274;43.060;25.618;2022-07-29T15:39:01;35.50;30.30
68354;DHT22;55274;43.060;25.618;2022-07-29T15:41:27;35.40;30.30
68354;DHT22;55274;43.060;25.618;2022-07-29T15:43:52;35.30;30.40
68354;DHT22;55274;43.060;25.618;2022-07-29T15:46:19;35.20;31.00
68354;DHT22;55274;43.060;25.618;2022-07-29T15:49:06;35.10;30.90
68354;DHT22;55274;43.060;25.618;2022-07-29T15:51:33;35.00;31.40
68354;DHT22;55274;43.060;25.618;2022-07-29T15:54:01;35.00;31.10
68354;DHT22;55274;43.060;25.618;2022-07-29T15:56:27;34.90;30.50
68354;DHT22;55274;43.060;25.618;2022-07-29T15:58:53;34.90;30.90
68354;DHT22;55274;43.060;25.618;2022-07-29T16:01:19;34.70;31.20
68354;DHT22;55274;43.060;25.618;2022-07-29T16:03:45;34.70;31.30
68354;DHT22;55274;43.060;25.618;2022-07-29T16:06:11;34.70;31.70
68354;DHT22;55274;43.060;25.618;2022-07-29T16:08:36;34.70;31.80